sensor_id;sensor_type;location;lat;lon;timestamp;temperature;humidity
3310;DHT22;1667;53.238;10.394;2023-06-14T00:03:03;20.10;64.50
3310;DHT22;1667;53.238;10.394;2023-06-14T00:08:03;20.00;65.20
3310;DHT22;1667;53.238;10.394;2023-06-14T00:13:04;20.00;65.70
3310;DHT22;1667;53.238;10.394;2023-06-14T00:18:05;19.80;66.10
3310;DHT22;1667;53.238;10.394;2023-06-14T00:23:04;19.70;66.70
3310;DHT22;1667;53.238;10.394;2023-06-14T00:28:03;19.50;66.80
3310;DHT22;1667;53.238;10.394;2023-06-14T00:33:02;19.60;66.70
3310;DHT22;1667;53.238;10.394;2023-06-14T00:38:02;19.50;66.60
3310;DHT22;1667;53.238;10.394;2023-06-14T00:43:00;19.70;66.50
3310;DHT22;1667;53.238;10.394;2023-06-14T00:48:00;19.70;66.30
3310;DHT22;1667;53.238;10.394;2023-06-14T00:52:59;19.70;65.70
3310;DHT22;1667;53.238;10.394;2023-06-14T00:58:00;19.80;65.90
3310;DHT22;1667;53.238;10.394;2023-06-14T01:02:58;19.70;66.20
3310;DHT22;1667;53.238;10.394;2023-06-14T01:08:10;19.60;66.60
3310;DHT22;1667;53.238;10.394;2023-06-14T01:13:18;19.60;66.80
3310;DHT22;1667;53.238;10.394;2023-06-14T01:18:18;19.60;66.50
3310;DHT22;1667;53.238;10.394;2023-06-14T01:23:19;19.50;66.80
3310;DHT22;1667;53.238;10.394;2023-06-14T01:28:19;19.40;67.10
3310;DHT22;1667;53.238;10.394;2023-06-14T01:33:20;19.40;67.30
3310;DHT22;1667;53.238;10.394;2023-06-14T01:38:22;19.40;67.30
3310;DHT22;1667;53.238;10.394;2023-06-14T01:43:22;19.30;67.40
3310;DHT22;1667;53.238;10.394;2023-06-14T01:48:22;19.30;68.10
3310;DHT22;1667;53.238;10.394;2023-06-14T01:53:22;19.10;68.20
3310;DHT22;1667;53.238;10.394;2023-06-14T01:58:21;19.10;68.40
3310;DHT22;1667;53.238;10.394;2023-06-14T02:03:21;19.10;67.90
3310;DHT22;1667;53.238;10.394;2023-06-14T02:08:23;19.10;68.20
3310;DHT22;1667;53.238;10.394;2023-06-14T02:13:21;19.00;68.50
3310;DHT22;1667;53.238;10.394;2023-06-14T02:18:20;18.90;68.80
3310;DHT22;1667;53.238;10.394;2023-06-14T02:23:19;18.80;69.40
3310;DHT22;1667;53.238;10.394;2023-06-14T02:28:19;18.80;69.40
3310;DHT22;1667;53.238;10.394;2023-06-14T02:33:17;18.80;69.40
3310;DHT22;1667;53.238;10.394;2023-06-14T02:38:16;18.80;69.20
3310;DHT22;1667;53.238;10.394;2023-06-14T02:43:14;18.40;71.00
3310;DHT22;1667;53.238;10.394;2023-06-14T02:48:16;18.20;71.80
3310;DHT22;1667;53.238;10.394;2023-06-14T02:53:14;18.20;71.90
3310;DHT22;1667;53.238;10.394;2023-06-14T02:58:13;18.30;71.40
3310;DHT22;1667;53.238;10.394;2023-06-14T03:03:15;18.40;71.60
3310;DHT22;1667;53.238;10.394;2023-06-14T03:08:21;18.10;73.40
3310;DHT22;1667;53.238;10.394;2023-06-14T03:13:27;18.00;73.20
3310;DHT22;1667;53.238;10.394;2023-06-14T03:18:31;18.00;72.80
3310;DHT22;1667;53.238;10.394;2023-06-14T03:23:34;18.00;73.10
3310;DHT22;1667;53.238;10.394;2023-06-14T03:28:33;18.00;73.90
3310;DHT22;1667;53.238;10.394;2023-06-14T03:33:33;17.80;74.80
3310;DHT22;1667;53.238;10.394;2023-06-14T03:38:32;17.70;75.20
3310;DHT22;1667;53.238;10.394;2023-06-14T03:43:33;17.70;75.20
3310;DHT22;1667;53.238;10.394;2023-06-14T03:48:33;17.80;75.70
3310;DHT22;1667;53.238;10.394;2023-06-14T03:53:32;17.60;77.30
3310;DHT22;1667;53.238;10.394;2023-06-14T03:58:41;17.50;78.20
3310;DHT22;1667;53.238;10.394;2023-06-14T04:03:41;17.40;78.50
3310;DHT22;1667;53.238;10.394;2023-06-14T04:08:40;17.50;78.20
3310;DHT22;1667;53.238;10.394;2023-06-14T04:13:39;17.80;78.10
3310;DHT22;1667;53.238;10.394;2023-06-14T04:18:37;17.80;79.20
3310;DHT22;1667;53.238;10.394;2023-06-14T04:23:37;18.00;78.50
3310;DHT22;1667;53.238;10.394;2023-06-14T04:28:36;18.20;78.80
3310;DHT22;1667;53.238;10.394;2023-06-14T04:33:40;18.40;78.20
3310;DHT22;1667;53.238;10.394;2023-06-14T04:38:49;18.70;80.80
3310;DHT22;1667;53.238;10.394;2023-06-14T04:43:54;18.90;81.30
3310;DHT22;1667;53.238;10.394;2023-06-14T04:48:54;19.20;83.60
3310;DHT22;1667;53.238;10.394;2023-06-14T04:53:55;19.40;79.90
3310;DHT22;1667;53.238;10.394;2023-06-14T04:58:57;19.70;80.30
3310;DHT22;1667;53.238;10.394;2023-06-14T05:03:55;19.80;80.40
3310;DHT22;1667;53.238;10.394;2023-06-14T05:08:55;19.90;82.90
3310;DHT22;1667;53.238;10.394;2023-06-14T05:13:54;20.20;78.90
3310;DHT22;1667;53.238;10.394;2023-06-14T05:18:56;20.40;80.00
3310;DHT22;1667;53.238;10.394;2023-06-14T05:23:57;20.40;79.40
3310;DHT22;1667;53.238;10.394;2023-06-14T05:28:56;20.60;80.80
3310;DHT22;1667;53.238;10.394;2023-06-14T05:33:55;20.80;78.50
3310;DHT22;1667;53.238;10.394;2023-06-14T05:38:54;21.00;80.70
3310;DHT22;1667;53.238;10.394;2023-06-14T05:43:56;21.20;77.40
3310;DHT22;1667;53.238;10.394;2023-06-14T05:48:55;21.30;77.00
3310;DHT22;1667;53.238;10.394;2023-06-14T05:53:53;21.30;79.10
3310;DHT22;1667;53.238;10.394;2023-06-14T05:58:53;21.90;77.70
3310;DHT22;1667;53.238;10.394;2023-06-14T06:03:53;21.80;76.50
3310;DHT22;1667;53.238;10.394;2023-06-14T06:08:51;22.30;77.70
3310;DHT22;1667;53.238;10.394;2023-06-14T06:13:50;22.40;75.90
3310;DHT22;1667;53.238;10.394;2023-06-14T06:18:49;22.50;75.00
3310;DHT22;1667;53.238;10.394;2023-06-14T06:23:48;22.60;75.00
3310;DHT22;1667;53.238;10.394;2023-06-14T06:28:47;23.00;75.20
3310;DHT22;1667;53.238;10.394;2023-06-14T06:33:46;23.20;73.20
3310;DHT22;1667;53.238;10.394;2023-06-14T06:38:44;23.50;73.30
3310;DHT22;1667;53.238;10.394;2023-06-14T06:43:44;23.70;72.80
3310;DHT22;1667;53.238;10.394;2023-06-14T06:48:46;23.70;73.00
3310;DHT22;1667;53.238;10.394;2023-06-14T06:53:52;23.80;72.60
3310;DHT22;1667;53.238;10.394;2023-06-14T06:58:52;23.90;72.90
3310;DHT22;1667;53.238;10.394;2023-06-14T07:03:51;24.10;72.00
3310;DHT22;1667;53.238;10.394;2023-06-14T07:08:49;24.30;71.10
3310;DHT22;1667;53.238;10.394;2023-06-14T07:13:48;24.50;69.80
3310;DHT22;1667;53.238;10.394;2023-06-14T07:18:48;25.00;69.10
3310;DHT22;1667;53.238;10.394;2023-06-14T07:23:46;25.00;68.10
3310;DHT22;1667;53.238;10.394;2023-06-14T07:28:45;25.20;68.90
3310;DHT22;1667;53.238;10.394;2023-06-14T07:33:43;25.30;65.90
3310;DHT22;1667;53.238;10.394;2023-06-14T07:38:43;25.60;66.10
3310;DHT22;1667;53.238;10.394;2023-06-14T07:43:42;25.70;66.00
3310;DHT22;1667;53.238;10.394;2023-06-14T07:48:40;25.80;66.10
3310;DHT22;1667;53.238;10.394;2023-06-14T07:53:39;26.20;64.60
3310;DHT22;1667;53.238;10.394;2023-06-14T07:58:40;26.20;64.70
3310;DHT22;1667;53.238;10.394;2023-06-14T08:03:39;26.40;64.60
3310;DHT22;1667;53.238;10.394;2023-06-14T08:08:37;26.40;64.00
3310;DHT22;1667;53.238;10.394;2023-06-14T08:13:36;26.50;64.20
3310;DHT22;1667;53.238;10.394;2023-06-14T08:18:36;26.90;62.60
3310;DHT22;1667;53.238;10.394;2023-06-14T08:23:34;27.00;62.00
3310;DHT22;1667;53.238;10.394;2023-06-14T08:28:33;27.30;61.50
3310;DHT22;1667;53.238;10.394;2023-06-14T08:33:32;28.00;59.00
3310;DHT22;1667;53.238;10.394;2023-06-14T08:38:33;28.20;59.50
3310;DHT22;1667;53.238;10.394;2023-06-14T08:43:32;28.10;59.90
3310;DHT22;1667;53.238;10.394;2023-06-14T08:48:31;28.20;59.30
3310;DHT22;1667;53.238;10.394;2023-06-14T08:53:31;28.30;59.10
3310;DHT22;1667;53.238;10.394;2023-06-14T08:58:35;28.60;58.60
3310;DHT22;1667;53.238;10.394;2023-06-14T09:03:35;28.70;58.50
3310;DHT22;1667;53.238;10.394;2023-06-14T09:08:38;29.00;57.90
3310;DHT22;1667;53.238;10.394;2023-06-14T09:13:39;29.10;58.20
3310;DHT22;1667;53.238;10.394;2023-06-14T09:18:39;29.10;57.70
3310;DHT22;1667;53.238;10.394;2023-06-14T09:23:39;29.40;56.50
3310;DHT22;1667;53.238;10.394;2023-06-14T09:28:42;29.60;55.20
3310;DHT22;1667;53.238;10.394;2023-06-14T09:33:42;29.70;55.60
3310;DHT22;1667;53.238;10.394;2023-06-14T09:38:52;29.90;55.30
3310;DHT22;1667;53.238;10.394;2023-06-14T09:43:52;30.40;54.20
3310;DHT22;1667;53.238;10.394;2023-06-14T09:48:54;30.50;54.30
3310;DHT22;1667;53.238;10.394;2023-06-14T09:53:55;30.90;53.20
3310;DHT22;1667;53.238;10.394;2023-06-14T09:58:58;30.70;53.00
3310;DHT22;1667;53.238;10.394;2023-06-14T10:04:05;30.50;53.40
3310;DHT22;1667;53.238;10.394;2023-06-14T10:09:09;30.40;53.10
3310;DHT22;1667;53.238;10.394;2023-06-14T10:14:10;30.40;54.10
3310;DHT22;1667;53.238;10.394;2023-06-14T10:19:16;30.50;53.40
3310;DHT22;1667;53.238;10.394;2023-06-14T10:24:16;30.70;52.50
3310;DHT22;1667;53.238;10.394;2023-06-14T10:29:17;30.80;52.20
3310;DHT22;1667;53.238;10.394;2023-06-14T10:34:23;31.00;52.00
3310;DHT22;1667;53.238;10.394;2023-06-14T10:39:22;31.00;51.00
3310;DHT22;1667;53.238;10.394;2023-06-14T10:44:41;31.10;51.50
3310;DHT22;1667;53.238;10.394;2023-06-14T10:49:42;31.10;51.70
3310;DHT22;1667;53.238;10.394;2023-06-14T11:01:38;31.20;51.00
3310;DHT22;1667;53.238;10.394;2023-06-14T11:06:46;31.30;50.00
3310;DHT22;1667;53.238;10.394;2023-06-14T11:11:46;31.50;49.20
3310;DHT22;1667;53.238;10.394;2023-06-14T11:16:49;31.60;50.40
3310;DHT22;1667;53.238;10.394;2023-06-14T11:21:48;32.00;48.90
3310;DHT22;1667;53.238;10.394;2023-06-14T11:26:48;32.00;48.20
3310;DHT22;1667;53.238;10.394;2023-06-14T11:31:49;31.60;48.00
3310;DHT22;1667;53.238;10.394;2023-06-14T11:36:47;31.40;48.40
3310;DHT22;1667;53.238;10.394;2023-06-14T11:41:46;31.10;49.50
3310;DHT22;1667;53.238;10.394;2023-06-14T11:46:44;31.30;49.70
3310;DHT22;1667;53.238;10.394;2023-06-14T11:51:44;31.60;48.60
3310;DHT22;1667;53.238;10.394;2023-06-14T11:56:44;31.80;48.40
3310;DHT22;1667;53.238;10.394;2023-06-14T12:01:43;32.10;47.20
3310;DHT22;1667;53.238;10.394;2023-06-14T12:06:43;32.00;48.00
3310;DHT22;1667;53.238;10.394;2023-06-14T12:11:42;31.80;47.70
3310;DHT22;1667;53.238;10.394;2023-06-14T12:16:41;31.40;47.20
3310;DHT22;1667;53.238;10.394;2023-06-14T12:21:40;31.00;47.60
3310;DHT22;1667;53.238;10.394;2023-06-14T12:26:40;30.80;48.50
3310;DHT22;1667;53.238;10.394;2023-06-14T12:31:39;30.70;48.60
3310;DHT22;1667;53.238;10.394;2023-06-14T12:36:38;30.60;48.10
3310;DHT22;1667;53.238;10.394;2023-06-14T12:41:43;30.60;48.10
3310;DHT22;1667;53.238;10.394;2023-06-14T12:46:42;30.70;47.80
3310;DHT22;1667;53.238;10.394;2023-06-14T12:51:41;30.80;47.30
3310;DHT22;1667;53.238;10.394;2023-06-14T12:56:39;30.70;47.20
3310;DHT22;1667;53.238;10.394;2023-06-14T13:01:40;30.40;47.40
3310;DHT22;1667;53.238;10.394;2023-06-14T13:06:39;30.40;48.40
3310;DHT22;1667;53.238;10.394;2023-06-14T13:11:38;30.50;48.00
3310;DHT22;1667;53.238;10.394;2023-06-14T13:16:37;30.50;47.20
3310;DHT22;1667;53.238;10.394;2023-06-14T13:21:36;30.70;47.80
3310;DHT22;1667;53.238;10.394;2023-06-14T13:26:35;30.60;45.30
3310;DHT22;1667;53.238;10.394;2023-06-14T13:31:34;30.60;46.20
3310;DHT22;1667;53.238;10.394;2023-06-14T13:36:32;30.90;46.20
3310;DHT22;1667;53.238;10.394;2023-06-14T13:41:33;31.10;45.30
3310;DHT22;1667;53.238;10.394;2023-06-14T13:46:32;31.10;46.10
3310;DHT22;1667;53.238;10.394;2023-06-14T13:51:31;31.10;45.80
3310;DHT22;1667;53.238;10.394;2023-06-14T13:56:32;31.00;46.80
3310;DHT22;1667;53.238;10.394;2023-06-14T14:01:31;30.90;46.30
3310;DHT22;1667;53.238;10.394;2023-06-14T14:06:30;30.90;46.80
3310;DHT22;1667;53.238;10.394;2023-06-14T14:11:29;30.90;46.30
3310;DHT22;1667;53.238;10.394;2023-06-14T14:16:31;30.90;46.10
3310;DHT22;1667;53.238;10.394;2023-06-14T14:21:30;30.60;46.30
3310;DHT22;1667;53.238;10.394;2023-06-14T14:26:29;30.40;46.90
3310;DHT22;1667;53.238;10.394;2023-06-14T14:31:27;30.00;47.40
3310;DHT22;1667;53.238;10.394;2023-06-14T14:36:27;29.90;48.40
3310;DHT22;1667;53.238;10.394;2023-06-14T14:41:27;29.90;48.90
3310;DHT22;1667;53.238;10.394;2023-06-14T14:46:27;29.80;48.70
3310;DHT22;1667;53.238;10.394;2023-06-14T14:51:27;29.60;49.20
3310;DHT22;1667;53.238;10.394;2023-06-14T14:56:25;29.40;49.00
3310;DHT22;1667;53.238;10.394;2023-06-14T15:01:24;29.10;49.50
3310;DHT22;1667;53.238;10.394;2023-06-14T15:06:23;29.10;49.70
3310;DHT22;1667;53.238;10.394;2023-06-14T15:11:22;29.00;48.80
3310;DHT22;1667;53.238;10.394;2023-06-14T15:16:21;28.80;48.20
3310;DHT22;1667;53.238;10.394;2023-06-14T15:21:20;28.70;48.50
3310;DHT22;1667;53.238;10.394;2023-06-14T15:26:20;28.80;50.30
3310;DHT22;1667;53.238;10.394;2023-06-14T15:31:20;28.60;51.20
3310;DHT22;1667;53.238;10.394;2023-06-14T15:36:20;28.60;51.30
3310;DHT22;1667;53.238;10.394;2023-06-14T15:41:19;28.50;51.30
3310;DHT22;1667;53.238;10.394;2023-06-14T15:46:22;28.40;50.90
3310;DHT22;1667;53.238;10.394;2023-06-14T15:51:20;28.30;51.20
3310;DHT22;1667;53.238;10.394;2023-06-14T15:56:19;28.00;51.20
3310;DHT22;1667;53.238;10.394;2023-06-14T16:01:18;27.70;51.80
3310;DHT22;1667;53.238;10.394;2023-06-14T16:06:17;27.50;51.80
3310;DHT22;1667;53.238;10.394;2023-06-14T16:11:16;27.20;52.30
3310;DHT22;1667;53.238;10.394;2023-06-14T16:16:14;27.10;52.10
3310;DHT22;1667;53.238;10.394;2023-06-14T16:21:13;26.90;52.00
3310;DHT22;1667;53.238;10.394;2023-06-14T16:26:15;26.80;52.10
3310;DHT22;1667;53.238;10.394;2023-06-14T16:31:13;26.60;52.30
3310;DHT22;1667;53.238;10.394;2023-06-14T16:36:14;26.40;52.70
3310;DHT22;1667;53.238;10.394;2023-06-14T16:41:14;26.40;52.80
3310;DHT22;1667;53.238;10.394;2023-06-14T16:46:14;26.40;52.50
3310;DHT22;1667;53.238;10.394;2023-06-14T16:51:12;26.40;52.40
3310;DHT22;1667;53.238;10.394;2023-06-14T16:56:11;26.50;52.40
3310;DHT22;1667;53.238;10.394;2023-06-14T17:01:10;26.30;52.50
3310;DHT22;1667;53.238;10.394;2023-06-14T17:06:09;25.90;52.40
3310;DHT22;1667;53.238;10.394;2023-06-14T17:11:08;25.70;52.60
3310;DHT22;1667;53.238;10.394;2023-06-14T17:16:06;25.50;52.80
3310;DHT22;1667;53.238;10.394;2023-06-14T17:21:06;25.50;52.90
3310;DHT22;1667;53.238;10.394;2023-06-14T17:26:04;25.40;52.90
3310;DHT22;1667;53.238;10.394;2023-06-14T17:31:03;25.40;53.30
3310;DHT22;1667;53.238;10.394;2023-06-14T17:36:02;25.40;53.10
3310;DHT22;1667;53.238;10.394;2023-06-14T17:41:03;25.40;53.00
3310;DHT22;1667;53.238;10.394;2023-06-14T17:46:06;25.20;52.70
3310;DHT22;1667;53.238;10.394;2023-06-14T17:51:05;25.10;52.70
3310;DHT22;1667;53.238;10.394;2023-06-14T17:56:05;24.80;52.60
3310;DHT22;1667;53.238;10.394;2023-06-14T18:01:04;24.70;53.00
3310;DHT22;1667;53.238;10.394;2023-06-14T18:06:02;24.60;53.00
3310;DHT22;1667;53.238;10.394;2023-06-14T18:11:02;24.60;53.20
3310;DHT22;1667;53.238;10.394;2023-06-14T18:16:01;24.60;53.20
3310;DHT22;1667;53.238;10.394;2023-06-14T18:21:00;24.60;53.30
3310;DHT22;1667;53.238;10.394;2023-06-14T18:25:59;24.70;53.40
3310;DHT22;1667;53.238;10.394;2023-06-14T18:30:57;24.70;53.00
3310;DHT22;1667;53.238;10.394;2023-06-14T18:35:58;24.70;53.20
3310;DHT22;1667;53.238;10.394;2023-06-14T18:40:57;24.60;53.00
3310;DHT22;1667;53.238;10.394;2023-06-14T18:45:55;24.40;53.20
3310;DHT22;1667;53.238;10.394;2023-06-14T18:50:54;24.10;53.40
3310;DHT22;1667;53.238;10.394;2023-06-14T18:55:54;24.00;53.70
3310;DHT22;1667;53.238;10.394;2023-06-14T19:00:53;24.00;53.80
3310;DHT22;1667;53.238;10.394;2023-06-14T19:05:51;24.10;53.80
3310;DHT22;1667;53.238;10.394;2023-06-14T19:10:54;24.00;54.10
3310;DHT22;1667;53.238;10.394;2023-06-14T19:15:52;24.10;54.10
3310;DHT22;1667;53.238;10.394;2023-06-14T19:20:51;24.10;54.40
3310;DHT22;1667;53.238;10.394;2023-06-14T19:25:49;24.20;54.30
3310;DHT22;1667;53.238;10.394;2023-06-14T19:30:49;24.20;54.00
3310;DHT22;1667;53.238;10.394;2023-06-14T19:35:48;24.20;54.20
3310;DHT22;1667;53.238;10.394;2023-06-14T19:40:46;24.10;54.50
3310;DHT22;1667;53.238;10.394;2023-06-14T19:45:46;24.10;54.50
3310;DHT22;1667;53.238;10.394;2023-06-14T19:50:46;23.90;54.10
3310;DHT22;1667;53.238;10.394;2023-06-14T19:55:48;23.70;54.70
3310;DHT22;1667;53.238;10.394;2023-06-14T20:00:46;23.60;54.80
3310;DHT22;1667;53.238;10.394;2023-06-14T20:05:46;23.60;54.80
3310;DHT22;1667;53.238;10.394;2023-06-14T20:10:46;23.50;54.90
3310;DHT22;1667;53.238;10.394;2023-06-14T20:15:44;23.50;54.80
3310;DHT22;1667;53.238;10.394;2023-06-14T20:20:43;23.50;55.10
3310;DHT22;1667;53.238;10.394;2023-06-14T20:25:43;23.40;55.00
3310;DHT22;1667;53.238;10.394;2023-06-14T20:30:45;23.30;55.10
3310;DHT22;1667;53.238;10.394;2023-06-14T20:35:43;23.20;55.20
3310;DHT22;1667;53.238;10.394;2023-06-14T20:40:45;23.10;55.40
3310;DHT22;1667;53.238;10.394;2023-06-14T20:45:44;23.10;55.70
3310;DHT22;1667;53.238;10.394;2023-06-14T20:50:43;23.10;55.60
3310;DHT22;1667;53.238;10.394;2023-06-14T20:55:43;23.00;55.80
3310;DHT22;1667;53.238;10.394;2023-06-14T21:00:43;22.90;55.60
3310;DHT22;1667;53.238;10.394;2023-06-14T21:05:42;22.90;55.60
3310;DHT22;1667;53.238;10.394;2023-06-14T21:10:43;22.90;55.90
3310;DHT22;1667;53.238;10.394;2023-06-14T21:15:43;22.80;55.80
3310;DHT22;1667;53.238;10.394;2023-06-14T21:20:42;22.70;56.00
3310;DHT22;1667;53.238;10.394;2023-06-14T21:25:40;22.50;56.10
3310;DHT22;1667;53.238;10.394;2023-06-14T21:30:41;22.40;56.40
3310;DHT22;1667;53.238;10.394;2023-06-14T21:35:39;22.30;56.50
3310;DHT22;1667;53.238;10.394;2023-06-14T21:40:38;22.20;56.70
3310;DHT22;1667;53.238;10.394;2023-06-14T21:45:39;22.10;56.60
3310;DHT22;1667;53.238;10.394;2023-06-14T21:50:39;22.00;56.70
3310;DHT22;1667;53.238;10.394;2023-06-14T21:55:37;21.90;57.10
3310;DHT22;1667;53.238;10.394;2023-06-14T22:00:36;21.70;57.10
3310;DHT22;1667;53.238;10.394;2023-06-14T22:05:36;21.60;57.30
3310;DHT22;1667;53.238;10.394;2023-06-14T22:10:34;21.50;57.60
3310;DHT22;1667;53.238;10.394;2023-06-14T22:15:34;21.40;57.70
3310;DHT22;1667;53.238;10.394;2023-06-14T22:20:32;21.40;57.80
3310;DHT22;1667;53.238;10.394;2023-06-14T22:25:33;21.30;57.80
3310;DHT22;1667;53.238;10.394;2023-06-14T22:30:31;21.30;58.00
3310;DHT22;1667;53.238;10.394;2023-06-14T22:35:33;21.30;58.20
3310;DHT22;1667;53.238;10.394;2023-06-14T22:40:33;21.20;58.00
3310;DHT22;1667;53.238;10.394;2023-06-14T22:45:32;21.20;58.30
3310;DHT22;1667;53.238;10.394;2023-06-14T22:50:33;21.10;58.20
3310;DHT22;1667;53.238;10.394;2023-06-14T22:55:33;21.10;58.10
3310;DHT22;1667;53.238;10.394;2023-06-14T23:00:31;21.10;58.30
3310;DHT22;1667;53.238;10.394;2023-06-14T23:05:30;21.00;58.30
3310;DHT22;1667;53.238;10.394;2023-06-14T23:10:29;21.00;58.40
3310;DHT22;1667;53.238;10.394;2023-06-14T23:15:29;20.90;58.60
3310;DHT22;1667;53.238;10.394;2023-06-14T23:20:27;20.80;58.60
3310;DHT22;1667;53.238;10.394;2023-06-14T23:25:26;20.80;58.70
3310;DHT22;1667;53.238;10.394;2023-06-14T23:30:24;20.70;58.90
3310;DHT22;1667;53.238;10.394;2023-06-14T23:35:24;20.60;59.00
3310;DHT22;1667;53.238;10.394;2023-06-14T23:40:23;20.50;59.20
3310;DHT22;1667;53.238;10.394;2023-06-14T23:45:22;20.40;59.20
3310;DHT22;1667;53.238;10.394;2023-06-14T23:50:22;20.40;59.30
3310;DHT22;1667;53.238;10.394;2023-06-14T23:55:22;20.30;59.50
